Terminal Aerodrome Forecast
Issued by NWS Blacksburg, VA

Current Version | Previous Version | Text Only | Print | Product List | Glossary Off
Versions: 1 2 3 4 5 6 7 8 9 10 11 12 13 14 15 16 17 18 19 20 21 22 23 24 25 26 27 28 29 30

000
FTUS41 KRNK 091740
TAFBLF
TAF
KBLF 091740Z 0918/1018 28012G18KT 6SM -SHSN OVC025
      TEMPO 0918/0921 4SM -SHSN OVC015
     FM092100 28010KT 3SM -SHSN SCT012 OVC025
      TEMPO 0921/0924 1SM -SHSN OVC008
     FM100600 30012KT 5SM -SHSN OVC015=

USA.gov is the U.S. government's official web portal to all federal, state and local government web resources and services.